createdAt,value
2018-12-29T00:04:21.342Z,19.83
2018-12-29T00:07:10.114Z,18.93
2018-12-29T00:09:51.680Z,20.33
2018-12-29T00:12:30.410Z,18.70
2018-12-29T00:15:19.377Z,18.83
2018-12-29T00:24:17.366Z,17.73
2018-12-29T00:27:06.103Z,19.23
2018-12-29T00:30:06.870Z,18.90
2018-12-29T00:32:26.505Z,17.57
2018-12-29T00:35:13.857Z,18.63
2018-12-29T00:37:51.389Z,20.60
2018-12-29T00:40:33.070Z,20.83
2018-12-29T00:43:14.690Z,21.30
2018-12-29T00:45:56.307Z,19.40
2018-12-29T00:48:38.137Z,19.97
2018-12-29T00:51:19.955Z,19.43
2018-12-29T00:54:01.409Z,18.83
2018-12-29T00:56:42.953Z,18.17
2018-12-29T00:59:24.131Z,18.90
2018-12-29T01:05:15.457Z,18.40
2018-12-29T01:16:44.635Z,18.73
2018-12-29T01:19:14.683Z,19.20
2018-12-29T01:21:47.642Z,18.60
2018-12-29T01:26:50.356Z,18.73
2018-12-29T01:29:20.137Z,19.90
2018-12-29T01:31:53.162Z,18.13
2018-12-29T01:34:22.992Z,17.57
2018-12-29T01:36:55.952Z,18.03
2018-12-29T01:39:26.057Z,17.60
2018-12-29T01:41:58.060Z,17.87
2018-12-29T01:44:27.848Z,19.70
2018-12-29T01:47:01.432Z,18.97
2018-12-29T01:49:31.236Z,18.87
2018-12-29T01:52:03.863Z,18.07
2018-12-29T01:54:33.922Z,20.03
2018-12-29T01:57:06.812Z,20.17
2018-12-29T02:02:11.867Z,18.97
2018-12-29T02:05:27.602Z,18.10
2018-12-29T02:10:55.069Z,19.70
2018-12-29T02:13:48.640Z,22.83
2018-12-29T02:16:23.384Z,20.07
2018-12-29T02:19:07.614Z,21.47
2018-12-29T02:21:54.666Z,21.20
2018-12-29T02:24:34.759Z,19.53
2018-12-29T02:27:38.385Z,21.40
2018-12-29T02:30:50.111Z,21.17
2018-12-29T02:34:03.935Z,21.13
2018-12-29T02:47:50.820Z,20.00
2018-12-29T02:51:58.854Z,20.57
2018-12-29T02:53:57.463Z,20.63
2018-12-29T02:59:43.802Z,21.27
2018-12-29T03:02:32.698Z,20.53
2018-12-29T03:05:02.832Z,19.77
2018-12-29T03:07:32.751Z,21.10
2018-12-29T03:10:02.627Z,20.00
2018-12-29T03:12:32.681Z,19.73
2018-12-29T03:15:21.451Z,18.90
2018-12-29T03:24:18.667Z,23.60
2018-12-29T03:27:00.155Z,20.63
2018-12-29T03:29:19.903Z,18.97
2018-12-29T03:31:49.739Z,19.93
2018-12-29T03:34:38.554Z,20.37
2018-12-29T03:37:08.363Z,20.03
2018-12-29T03:39:38.407Z,19.70
2018-12-29T03:42:12.091Z,19.23
2018-12-29T03:44:54.007Z,20.47
2018-12-29T03:47:32.665Z,18.27
2018-12-29T03:50:21.703Z,20.30
2018-12-29T03:52:51.412Z,20.67
2018-12-29T03:55:40.161Z,20.53
2018-12-29T04:04:38.043Z,20.20
2018-12-29T04:10:22.339Z,18.93
2018-12-29T04:13:03.732Z,18.73
2018-12-29T04:15:33.805Z,20.00
2018-12-29T04:21:33.571Z,19.53
2018-12-29T04:27:11.394Z,19.50
2018-12-29T04:29:53.370Z,19.37
2018-12-29T04:32:51.067Z,18.83
2018-12-29T04:35:51.383Z,18.17
2018-12-29T04:41:58.898Z,18.37
2018-12-29T04:44:28.776Z,19.00
2018-12-29T04:46:59.039Z,18.30
2018-12-29T04:49:47.818Z,20.07
2018-12-29T04:52:17.909Z,19.47
2018-12-29T04:55:07.753Z,19.17
2018-12-29T04:57:38.017Z,18.83
2018-12-29T05:00:08.680Z,18.23
2018-12-29T05:02:38.458Z,18.63
2018-12-29T05:05:39.040Z,19.53
2018-12-29T05:14:17.434Z,18.70
2018-12-29T05:17:01.629Z,18.07
2018-12-29T05:19:43.523Z,18.13
2018-12-29T05:24:53.877Z,18.47
2018-12-29T05:27:35.544Z,18.30
2018-12-29T05:35:42.924Z,17.10
2018-12-29T05:38:31.730Z,16.40
2018-12-29T05:41:20.605Z,17.00
2018-12-29T05:44:09.449Z,16.67
2018-12-29T05:46:58.315Z,17.67
2018-12-29T05:58:46.188Z,18.70
2018-12-29T06:04:44.135Z,18.80
2018-12-29T06:07:32.941Z,18.67
2018-12-29T06:13:34.733Z,17.60
2018-12-29T06:15:52.351Z,18.13
2018-12-29T06:18:41.037Z,19.73
2018-12-29T06:21:10.998Z,17.93
2018-12-29T06:23:52.493Z,17.93
2018-12-29T06:26:39.410Z,17.83
2018-12-29T06:29:20.763Z,18.30
2018-12-29T06:32:02.288Z,19.87
2018-12-29T06:37:26.701Z,18.10
2018-12-29T06:40:06.529Z,18.90
2018-12-29T06:45:38.560Z,20.03
2018-12-29T06:48:27.213Z,18.47
2018-12-29T06:54:06.830Z,16.27
2018-12-29T06:57:14.514Z,19.03
2018-12-29T07:06:12.167Z,19.30
2018-12-29T07:12:10.173Z,18.53
2018-12-29T07:15:12.919Z,19.13
2018-12-29T07:18:19.723Z,18.47
2018-12-29T07:24:00.802Z,18.57
2018-12-29T07:30:09.011Z,19.63
2018-12-29T07:32:57.757Z,17.37
2018-12-29T07:35:46.619Z,18.70
2018-12-29T07:41:24.028Z,18.43
2018-12-29T07:44:12.738Z,16.83
2018-12-29T07:52:44.031Z,17.77
2018-12-29T07:55:36.286Z,18.40
2018-12-29T08:04:34.959Z,15.80
2018-12-29T08:07:37.863Z,16.33
2018-12-29T08:10:14.194Z,16.73
2018-12-29T08:13:15.038Z,17.30
2018-12-29T08:18:44.167Z,16.67
2018-12-29T08:24:45.627Z,17.07
2018-12-29T08:27:34.486Z,16.10
2018-12-29T08:33:37.801Z,16.47
2018-12-29T08:39:14.964Z,14.97
2018-12-29T08:42:03.988Z,15.37
2018-12-29T08:45:13.083Z,15.37
2018-12-29T08:48:01.961Z,16.50
2018-12-29T08:50:50.681Z,15.57
2018-12-29T08:53:39.637Z,16.40
2018-12-29T08:56:28.428Z,16.50
2018-12-29T09:02:16.491Z,16.10
2018-12-29T09:11:16.849Z,16.07
2018-12-29T09:14:05.614Z,16.83
2018-12-29T09:19:54.996Z,16.57
2018-12-29T09:25:24.016Z,17.60
2018-12-29T09:28:12.910Z,16.60
2018-12-29T09:31:03.679Z,16.93
2018-12-29T09:36:32.691Z,18.73
2018-12-29T09:39:35.593Z,15.97
2018-12-29T09:42:12.248Z,17.93
2018-12-29T09:44:42.687Z,18.00
2018-12-29T09:47:50.513Z,18.47
2018-12-29T09:50:39.237Z,19.10
2018-12-29T09:55:58.930Z,18.87
2018-12-29T09:59:09.000Z,18.90
2018-12-29T10:01:57.955Z,18.37
2018-12-29T10:04:27.861Z,19.37
2018-12-29T10:06:57.676Z,19.37
2018-12-29T10:09:46.819Z,19.43
2018-12-29T10:12:16.602Z,19.50
2018-12-29T10:18:04.918Z,18.03
2018-12-29T10:20:53.677Z,19.00
2018-12-29T10:23:23.460Z,18.93
2018-12-29T10:26:12.175Z,18.30
2018-12-29T10:29:01.001Z,17.93
2018-12-29T10:32:10.323Z,19.50
2018-12-29T10:34:40.190Z,18.33
2018-12-29T10:40:09.503Z,19.10
2018-12-29T10:43:09.970Z,18.43
2018-12-29T10:45:40.900Z,18.77
2018-12-29T10:48:22.043Z,18.47
2018-12-29T10:51:03.372Z,18.30
2018-12-29T10:53:47.460Z,18.60
2018-12-29T10:56:17.428Z,17.83
2018-12-29T10:59:06.243Z,18.93
2018-12-29T11:01:36.256Z,17.97
2018-12-29T11:04:25.075Z,17.70
2018-12-29T11:07:34.050Z,17.37
2018-12-29T11:10:22.858Z,17.93
2018-12-29T11:13:12.051Z,16.10
2018-12-29T11:16:00.949Z,17.63
2018-12-29T11:18:49.710Z,18.17
2018-12-29T11:24:18.709Z,17.03
2018-12-29T11:27:07.519Z,16.73
2018-12-29T11:29:37.366Z,15.67
2018-12-29T11:32:07.394Z,16.77
2018-12-29T11:37:36.564Z,15.00
2018-12-29T11:43:40.350Z,13.80
2018-12-29T11:45:57.774Z,13.93
2018-12-29T11:48:46.526Z,13.87
2018-12-29T11:51:18.338Z,14.73
2018-12-29T11:53:48.084Z,14.07
2018-12-29T11:56:50.988Z,14.03
2018-12-29T11:59:20.275Z,13.63
2018-12-29T12:02:01.654Z,13.83
2018-12-29T12:04:43.224Z,12.40
2018-12-29T12:07:24.916Z,13.10
2018-12-29T12:10:06.465Z,12.60
2018-12-29T12:15:42.621Z,12.57
2018-12-29T12:21:03.450Z,12.50
2018-12-29T12:23:52.278Z,12.97
2018-12-29T12:26:22.128Z,13.77
2018-12-29T12:28:51.947Z,11.90
2018-12-29T12:31:21.951Z,11.27
2018-12-29T12:34:11.404Z,11.23
2018-12-29T12:37:00.456Z,11.90
2018-12-29T12:39:49.240Z,13.10
2018-12-29T12:42:22.091Z,13.13
2018-12-29T12:45:29.743Z,12.10
2018-12-29T12:48:18.561Z,11.13
2018-12-29T12:50:49.258Z,11.70
2018-12-29T12:53:38.028Z,11.87
2018-12-29T12:56:27.073Z,10.03
2018-12-29T12:59:20.647Z,12.13
2018-12-29T13:01:53.944Z,11.20
2018-12-29T13:04:28.989Z,11.27
2018-12-29T13:06:59.323Z,11.47
2018-12-29T13:09:48.288Z,11.43
2018-12-29T13:12:37.102Z,12.23
2018-12-29T13:15:07.072Z,12.13
2018-12-29T13:17:55.922Z,11.50
2018-12-29T13:20:45.245Z,10.60
2018-12-29T13:23:53.065Z,10.93
2018-12-29T13:26:41.932Z,12.40
2018-12-29T13:29:30.788Z,10.97
2018-12-29T13:32:00.627Z,11.37
2018-12-29T13:34:30.821Z,11.17
2018-12-29T13:37:19.841Z,10.97
2018-12-29T13:39:50.159Z,11.47
2018-12-29T13:42:59.247Z,10.87
2018-12-29T13:45:49.024Z,10.77
2018-12-29T13:48:39.460Z,10.23
2018-12-29T13:51:09.601Z,11.33
2018-12-29T13:53:39.447Z,9.47
2018-12-29T13:56:09.231Z,9.63
2018-12-29T13:58:39.290Z,9.67
2018-12-29T14:01:09.138Z,8.73
2018-12-29T14:06:39.710Z,9.63
2018-12-29T14:09:09.599Z,9.30
2018-12-29T14:12:02.664Z,9.03
2018-12-29T14:14:51.423Z,10.00
2018-12-29T14:17:32.304Z,9.20
2018-12-29T14:20:14.031Z,9.37
2018-12-29T14:22:55.651Z,12.87
2018-12-29T14:25:25.550Z,12.17
2018-12-29T14:28:14.654Z,10.73
2018-12-29T14:30:44.462Z,10.37
2018-12-29T14:33:33.259Z,8.83
2018-12-29T14:36:22.083Z,8.27
2018-12-29T14:38:52.198Z,7.60
2018-12-29T14:41:23.537Z,7.03
2018-12-29T14:47:11.543Z,7.17
2018-12-29T14:52:24.774Z,7.13
2018-12-29T14:55:06.759Z,7.23
2018-12-29T14:57:36.625Z,8.00
2018-12-29T15:00:06.958Z,7.30
2018-12-29T15:02:55.843Z,6.40
2018-12-29T15:05:56.603Z,6.83
2018-12-29T15:11:16.137Z,7.60
2018-12-29T15:13:45.957Z,9.03
2018-12-29T15:16:53.703Z,7.87
2018-12-29T15:19:23.543Z,7.20
2018-12-29T15:25:12.899Z,7.87
2018-12-29T15:28:03.320Z,8.93
2018-12-29T15:30:33.694Z,8.83
2018-12-29T15:33:22.718Z,9.83
2018-12-29T15:35:52.638Z,8.60
2018-12-29T15:38:41.572Z,9.30
2018-12-29T15:41:11.582Z,9.40
2018-12-29T15:44:00.511Z,7.87
2018-12-29T15:52:02.627Z,9.63
2018-12-29T15:54:51.781Z,7.30
2018-12-29T15:57:40.597Z,8.70
2018-12-29T16:00:10.883Z,8.10
2018-12-29T16:02:40.825Z,8.23
2018-12-29T16:05:10.636Z,8.77
2018-12-29T16:08:00.008Z,8.17
2018-12-29T16:10:48.995Z,8.60
2018-12-29T16:13:37.929Z,8.63
2018-12-29T16:16:26.892Z,8.23
2018-12-29T16:19:16.673Z,8.47
2018-12-29T16:21:46.835Z,9.10
2018-12-29T16:24:36.159Z,7.77
2018-12-29T16:27:27.983Z,6.00
2018-12-29T16:29:58.378Z,7.43
2018-12-29T16:32:28.431Z,7.63
2018-12-29T16:34:58.978Z,5.30
2018-12-29T16:37:29.656Z,7.03
2018-12-29T16:40:18.692Z,6.73
2018-12-29T16:43:07.655Z,6.03
2018-12-29T16:45:56.631Z,6.90
2018-12-29T16:48:45.706Z,5.40
2018-12-29T16:51:34.793Z,5.67
2018-12-29T16:54:05.089Z,5.33
2018-12-29T16:56:54.358Z,5.87
2018-12-29T16:59:25.282Z,5.53
2018-12-29T17:01:55.305Z,5.33
2018-12-29T17:04:25.284Z,6.00
2018-12-29T17:06:55.504Z,6.07
2018-12-29T17:09:46.076Z,6.20
2018-12-29T17:12:16.717Z,6.03
2018-12-29T17:15:05.600Z,5.30
2018-12-29T17:17:54.605Z,5.03
2018-12-29T17:20:24.658Z,4.90
2018-12-29T17:22:54.781Z,6.10
2018-12-29T17:25:44.034Z,5.67
2018-12-29T17:28:25.802Z,6.07
2018-12-29T17:31:07.412Z,5.73
2018-12-29T17:33:49.012Z,5.43
2018-12-29T17:36:30.039Z,5.80
2018-12-29T17:39:11.497Z,5.50
2018-12-29T17:41:52.901Z,6.87
2018-12-29T17:44:34.316Z,6.83
2018-12-29T17:47:15.343Z,7.13
2018-12-29T17:49:56.768Z,8.67
2018-12-29T17:52:38.341Z,7.67
2018-12-29T17:55:20.400Z,8.17
2018-12-29T17:57:50.619Z,9.00
2018-12-29T18:00:20.542Z,8.73
2018-12-29T18:02:50.584Z,9.10
2018-12-29T18:05:20.623Z,9.57
2018-12-29T18:07:50.639Z,11.30
2018-12-29T18:10:39.482Z,11.37
2018-12-29T18:13:28.394Z,11.67
2018-12-29T18:15:58.574Z,12.07
2018-12-29T18:18:28.410Z,11.50
2018-12-29T18:20:58.208Z,11.57
2018-12-29T18:24:01.293Z,11.80
2018-12-29T18:26:49.807Z,12.50
2018-12-29T18:29:47.461Z,12.80
2018-12-29T18:32:36.388Z,11.47
2018-12-29T18:35:06.780Z,12.10
2018-12-29T18:37:55.805Z,13.07
2018-12-29T18:40:44.777Z,13.40
2018-12-29T18:43:52.488Z,12.67
2018-12-29T18:46:41.336Z,16.33
2018-12-29T18:49:11.331Z,14.30
2018-12-29T18:52:00.151Z,15.43
2018-12-29T18:54:48.994Z,15.17
2018-12-29T18:57:37.784Z,15.57
2018-12-29T19:00:07.947Z,13.57
2018-12-29T19:02:58.976Z,15.80
2018-12-29T19:05:29.010Z,14.90
2018-12-29T19:07:58.920Z,16.13
2018-12-29T19:10:53.770Z,15.47
2018-12-29T19:13:25.439Z,15.87
2018-12-29T19:16:14.757Z,15.57
2018-12-29T19:19:05.155Z,16.00
2018-12-29T19:25:08.593Z,15.27
2018-12-29T19:27:45.165Z,17.10
2018-12-29T19:30:15.089Z,17.70
2018-12-29T19:33:22.841Z,16.23
2018-12-29T19:36:12.093Z,15.97
2018-12-29T19:41:46.647Z,16.20
2018-12-29T19:44:32.863Z,16.43
2018-12-29T19:47:02.818Z,15.80
2018-12-29T19:49:34.393Z,16.47
2018-12-29T19:52:23.324Z,17.20
2018-12-29T19:54:53.734Z,17.17
2018-12-29T19:57:24.200Z,18.17
2018-12-29T20:00:26.498Z,17.10
2018-12-29T20:02:46.537Z,17.33
2018-12-29T20:05:35.827Z,17.60
2018-12-29T20:08:43.643Z,17.17
2018-12-29T20:11:27.706Z,18.87
2018-12-29T20:13:45.703Z,18.43
2018-12-29T20:16:15.573Z,17.63
2018-12-29T20:18:47.324Z,18.37
2018-12-29T20:21:36.262Z,16.97
2018-12-29T20:24:07.100Z,17.00
2018-12-29T20:26:56.589Z,17.20
2018-12-29T20:29:26.681Z,19.57
2018-12-29T20:35:06.002Z,19.53
2018-12-29T20:38:08.733Z,18.67
2018-12-29T20:40:28.940Z,18.10
2018-12-29T20:43:17.973Z,19.53
2018-12-29T20:49:06.417Z,17.87
2018-12-29T20:52:29.227Z,19.27
2018-12-29T20:55:28.518Z,18.73
2018-12-29T20:57:58.394Z,18.57
2018-12-29T21:00:47.287Z,20.03
2018-12-29T21:06:10.926Z,18.93
2018-12-29T21:08:41.151Z,18.47
2018-12-29T21:14:20.406Z,19.03
2018-12-29T21:17:09.319Z,19.90
2018-12-29T21:19:39.502Z,18.77
2018-12-29T21:22:28.391Z,19.47
2018-12-29T21:24:58.514Z,18.40
2018-12-29T21:27:28.331Z,19.00
2018-12-29T21:29:58.205Z,17.03
2018-12-29T21:32:29.399Z,18.30
2018-12-29T21:35:18.516Z,17.60
2018-12-29T21:37:48.610Z,18.30
2018-12-29T21:40:49.472Z,15.80
2018-12-29T21:43:28.004Z,18.03
2018-12-29T21:45:57.834Z,17.07
2018-12-29T21:48:27.827Z,15.90
2018-12-29T21:51:16.626Z,14.57
2018-12-29T21:53:46.591Z,15.10
2018-12-29T21:56:35.469Z,16.60
2018-12-29T21:59:05.715Z,14.40
2018-12-29T22:01:36.180Z,16.20
2018-12-29T22:04:25.139Z,16.43
2018-12-29T22:07:13.999Z,14.83
2018-12-29T22:09:58.400Z,17.17
2018-12-29T22:12:41.367Z,16.27
2018-12-29T22:15:45.973Z,14.93
2018-12-29T22:18:28.960Z,13.70
2018-12-29T22:21:01.127Z,11.97
2018-12-29T22:31:03.775Z,10.07
2018-12-29T22:34:16.367Z,10.07
2018-12-29T22:37:25.034Z,9.90
2018-12-29T22:46:02.247Z,8.37
2018-12-29T22:48:44.614Z,8.40
2018-12-29T22:51:26.512Z,8.47
2018-12-29T22:54:08.580Z,8.57
2018-12-29T22:56:50.936Z,7.17
2018-12-29T22:59:32.886Z,7.33
2018-12-29T23:02:14.758Z,6.90
2018-12-29T23:04:56.528Z,5.10
2018-12-29T23:07:38.251Z,5.37
2018-12-29T23:10:19.615Z,4.47
2018-12-29T23:13:00.952Z,4.60
2018-12-29T23:15:42.767Z,4.17
2018-12-29T23:18:23.743Z,4.17
2018-12-29T23:21:03.857Z,3.50
2018-12-29T23:24:11.771Z,3.70
2018-12-29T23:27:00.734Z,5.03
2018-12-29T23:32:50.395Z,4.73
2018-12-29T23:41:48.173Z,3.60
2018-12-29T23:44:37.234Z,4.50
2018-12-29T23:47:07.508Z,3.13
2018-12-29T23:49:37.380Z,3.17
2018-12-29T23:52:07.552Z,2.90
2018-12-29T23:54:40.752Z,2.17
2018-12-29T23:57:10.706Z,2.10
2018-12-29T23:59:49.471Z,2.57
